Monday, November 19, 2018, 8:06 AM GMT
Back to Local

CYGK, Kingston, Ont.

Location: , , Canada Lat: 44.217
Local Time: 8:06 AM GMT ( 8:06 GMT) Lon: -76.6
Time Zone: GMT Elev: 305 ft

Show me the last for .
Show Decoded

2018-11-19 04:00 METAR CYGK 190400Z 18012KT 12SM -RASN SCT011 BKN022 OVC062 03/02 A3011 RMK
                 SF3SC3SC2 LAST STFD OBS/NEXT 191100 UTC SLP202 =
2018-11-19 03:00 METAR CYGK 190300Z 20009G16KT 12SM -RASN SCT010 OVC020 03/02 A3013 RMK SF4SC4
                 SLP210 =
2018-11-19 02:37 METAR CYGK 190237Z 19012KT 12SM -RASN BKN012 OVC024 03/02 A3014 RMK SF5SC3
                 SLP211 =
2018-11-19 02:00 METAR CYGK 190200Z 19015KT 12SM -SN FEW012 BKN024 OVC050 03/01 A3015 RMK
                 SF2SC5SC1 SLP214 =
2018-11-19 01:00 METAR CYGK 190100Z 18014KT 15SM -SN SCT012 BKN021 OVC042 02/00 A3015 RMK
                 SF4SC3SC1 SLP218 =
2018-11-19 00:00 METAR CYGK 190000Z 16011KT 110V180 12SM -SN SCT009 BKN018 OVC056 02/01 A3016 RMK
                 SF3SC2SC3 SLP221 =
2018-11-18 23:48 METAR CYGK 182348Z 12005KT 050V170 12SM -SN SCT015 OVC055 M01/M04 A3017 RMK
                 SF3SC5 SLP224 =
2018-11-18 23:00 METAR CYGK 182300Z 07006KT 15SM OVC054 M02/M04 A3019 RMK SC8 SLP230 =
2018-11-18 22:00 METAR CYGK 182200Z 06006KT 15SM FEW025 OVC055 M01/M05 A3020 RMK SC1SC7 SLP233 =
2018-11-18 21:00 METAR CYGK 182100Z 06005KT 15SM FEW025 BKN055 M01/M05 A3022 RMK CU2SC5 SLP240 =
2018-11-18 20:00 METAR CYGK 182000Z VRB02KT 15SM FEW025 SCT040 BKN053 M01/M05 A3023 RMK SC1SC2SC4
                 SLP245 =
2018-11-18 19:00 METAR CYGK 181900Z 06007KT 15SM SCT025 BKN040 BKN055 M01/M05 A3025 RMK SC4SC2SC1
                 SLP251 =
2018-11-18 18:00 METAR CYGK 181800Z 06006KT 15SM -SN OVC025 M02/M05 A3027 RMK SC8 SLP257 =
2018-11-18 17:00 METAR CYGK 181700Z 08006KT 4SM -SN OVC025 M02/M04 A3030 RMK SN2SC6 SLP266 =
2018-11-18 16:00 METAR CYGK 181600Z 09006KT 4SM -SN OVC022 M02/M06 A3032 RMK SC8 SLP276 =
2018-11-18 15:00 METAR CYGK 181500Z 07005KT 15SM -SN BKN043 M02/M05 A3034 RMK SC7 SLP281 =
2018-11-18 14:00 METAR CYGK 181400Z 05004KT 15SM -SN BKN047 M04/M07 A3035 RMK SC7 SLP284 =
2018-11-18 13:00 METAR CYGK 181300Z 04004KT 15SM OVC045 M05/M07 A3035 RMK SC8 SLP286 =
2018-11-18 12:00 METAR CYGK 181200Z 05003KT 040V110 15SM BKN050 BKN180 OVC250 M06/M08 A3035 RMK
                 SC5AC1CI2 SLP285 =
2018-11-18 11:00 METAR CYGK 181100Z 02004KT 15SM SCT050 BKN180 M07/M09 A3034 RMK SC4AC2 SLP280 =

Support USWX by starting your Amazon purchase here.